createdAt,value
2023-04-29T00:00:53.711Z,17.38
2023-04-29T00:03:21.432Z,17.48
2023-04-29T00:05:48.923Z,17.15
2023-04-29T00:08:16.318Z,19.08
2023-04-29T00:10:43.275Z,20.33
2023-04-29T00:13:11.965Z,17.25
2023-04-29T00:15:40.204Z,22.15
2023-04-29T00:18:07.614Z,21.63
2023-04-29T00:20:35.042Z,21.77
2023-04-29T00:23:02.825Z,19.88
2023-04-29T00:25:29.940Z,22.00
2023-04-29T00:28:01.859Z,20.05
2023-04-29T00:30:29.223Z,18.05
2023-04-29T00:32:56.679Z,16.58
2023-04-29T00:35:23.821Z,18.70
2023-04-29T00:37:51.158Z,17.85
2023-04-29T00:40:18.432Z,19.83
2023-04-29T00:42:45.911Z,17.85
2023-04-29T00:45:13.487Z,20.60
2023-04-29T00:47:42.002Z,18.30
2023-04-29T00:50:12.694Z,21.38
2023-04-29T00:52:40.466Z,17.20
2023-04-29T00:55:09.049Z,15.38
2023-04-29T00:57:36.486Z,18.88
2023-04-29T01:00:04.214Z,18.85
2023-04-29T01:02:32.017Z,15.93
2023-04-29T01:04:59.101Z,14.95
2023-04-29T01:08:18.626Z,18.77
2023-04-29T01:10:54.524Z,15.75
2023-04-29T01:13:34.085Z,19.48
2023-04-29T01:16:07.678Z,17.90
2023-04-29T01:18:43.670Z,15.85
2023-04-29T01:21:11.678Z,20.40
2023-04-29T01:23:39.005Z,17.33
2023-04-29T01:26:06.780Z,17.75
2023-04-29T01:29:20.459Z,22.05
2023-04-29T01:32:01.437Z,17.25
2023-04-29T01:35:11.951Z,23.05
2023-04-29T01:38:16.048Z,17.20
2023-04-29T01:40:49.592Z,21.42
2023-04-29T01:43:24.742Z,16.15
2023-04-29T01:45:54.081Z,18.15
2023-04-29T01:48:22.946Z,16.92
2023-04-29T01:50:51.349Z,19.73
2023-04-29T01:53:18.434Z,21.10
2023-04-29T01:55:47.503Z,14.17
2023-04-29T01:58:20.832Z,18.95
2023-04-29T02:01:10.370Z,16.98
2023-04-29T02:03:37.722Z,17.63
2023-04-29T02:06:08.382Z,16.15
2023-04-29T02:08:36.874Z,20.50
2023-04-29T02:11:04.376Z,16.88
2023-04-29T02:13:39.531Z,15.95
2023-04-29T02:16:08.941Z,17.05
2023-04-29T02:18:36.483Z,14.30
2023-04-29T02:21:05.793Z,15.20
2023-04-29T02:23:35.851Z,16.52
2023-04-29T02:26:06.965Z,18.50
2023-04-29T02:28:35.085Z,18.90
2023-04-29T02:31:02.679Z,17.50
2023-04-29T02:33:30.963Z,18.60
2023-04-29T02:35:59.693Z,16.38
2023-04-29T02:38:26.893Z,17.27
2023-04-29T02:40:54.176Z,16.40
2023-04-29T02:43:22.245Z,19.50
2023-04-29T02:45:49.605Z,16.45
2023-04-29T02:48:17.024Z,18.33
2023-04-29T02:50:44.405Z,17.73
2023-04-29T02:53:11.692Z,21.30
2023-04-29T02:55:39.156Z,17.38
2023-04-29T02:58:09.943Z,15.23
2023-04-29T03:00:37.446Z,18.67
2023-04-29T03:03:04.608Z,16.38
2023-04-29T03:05:32.139Z,13.32
2023-04-29T03:07:59.210Z,15.25
2023-04-29T03:10:26.597Z,15.27
2023-04-29T03:12:53.657Z,17.73
2023-04-29T03:15:20.953Z,13.77
2023-04-29T03:17:49.427Z,11.73
2023-04-29T03:20:16.737Z,19.42
2023-04-29T03:22:43.714Z,16.00
2023-04-29T03:25:11.559Z,12.82
2023-04-29T03:27:39.750Z,15.27
2023-04-29T03:30:08.953Z,12.57
2023-04-29T03:32:41.846Z,18.13
2023-04-29T03:35:16.141Z,24.15
2023-04-29T03:38:12.538Z,18.45
2023-04-29T03:40:40.229Z,13.55
2023-04-29T03:43:09.323Z,14.68
2023-04-29T03:45:37.444Z,18.30
2023-04-29T03:48:06.513Z,18.17
2023-04-29T03:50:33.855Z,19.58
2023-04-29T03:53:00.851Z,16.50
2023-04-29T03:55:30.685Z,17.02
2023-04-29T03:57:57.988Z,15.63
2023-04-29T04:00:26.644Z,16.95
2023-04-29T04:02:56.098Z,18.02
2023-04-29T04:05:25.290Z,19.15
2023-04-29T04:07:57.405Z,24.17
2023-04-29T04:10:37.020Z,21.00
2023-04-29T04:13:10.548Z,17.00
2023-04-29T04:15:38.049Z,13.23
2023-04-29T04:18:05.406Z,14.60
2023-04-29T04:20:32.845Z,11.00
2023-04-29T04:22:59.896Z,13.15
2023-04-29T04:25:30.333Z,12.15
2023-04-29T04:28:08.252Z,14.75
2023-04-29T04:30:58.748Z,10.32
2023-04-29T04:33:27.396Z,14.48
2023-04-29T04:35:55.168Z,12.38
2023-04-29T04:38:25.365Z,13.52
2023-04-29T04:40:53.323Z,17.00
2023-04-29T04:43:32.428Z,20.17
2023-04-29T04:45:59.929Z,11.30
2023-04-29T04:48:27.160Z,18.58
2023-04-29T04:50:55.206Z,13.35
2023-04-29T04:53:22.517Z,11.45
2023-04-29T04:56:01.530Z,12.48
2023-04-29T04:58:31.642Z,10.15
2023-04-29T05:01:02.263Z,12.93
2023-04-29T05:03:29.560Z,12.25
2023-04-29T05:05:58.560Z,13.40
2023-04-29T05:08:26.810Z,10.70
2023-04-29T05:10:56.682Z,15.38
2023-04-29T05:13:25.370Z,12.40
2023-04-29T05:15:52.862Z,20.43
2023-04-29T05:18:24.036Z,17.08
2023-04-29T05:20:52.714Z,14.35
2023-04-29T05:23:19.675Z,14.55
2023-04-29T05:25:47.618Z,12.73
2023-04-29T05:28:17.117Z,12.20
2023-04-29T05:30:45.452Z,12.68
2023-04-29T05:33:13.179Z,15.65
2023-04-29T05:35:40.448Z,16.20
2023-04-29T05:38:07.819Z,15.30
2023-04-29T05:40:41.090Z,15.15
2023-04-29T05:43:40.519Z,19.42
2023-04-29T05:46:08.098Z,13.00
2023-04-29T05:48:35.247Z,16.75
2023-04-29T05:51:02.534Z,20.27
2023-04-29T05:53:29.971Z,19.30
2023-04-29T05:55:58.437Z,15.55
2023-04-29T05:58:26.057Z,13.10
2023-04-29T06:00:53.368Z,12.75
2023-04-29T06:03:23.779Z,14.60
2023-04-29T06:06:12.210Z,18.33
2023-04-29T06:09:27.175Z,13.57
2023-04-29T06:11:58.343Z,13.57
2023-04-29T06:14:25.649Z,15.48
2023-04-29T06:16:53.847Z,17.55
2023-04-29T06:19:21.289Z,17.48
2023-04-29T06:21:49.723Z,14.32
2023-04-29T06:24:16.954Z,14.55
2023-04-29T06:26:44.703Z,15.68
2023-04-29T06:29:12.300Z,14.60
2023-04-29T06:31:39.865Z,13.93
2023-04-29T06:34:11.573Z,16.05
2023-04-29T06:36:56.569Z,19.23
2023-04-29T06:39:50.365Z,14.75
2023-04-29T06:42:37.087Z,15.82
2023-04-29T06:45:23.749Z,15.13
2023-04-29T06:50:54.041Z,13.88
2023-04-29T06:53:22.450Z,15.55
2023-04-29T06:55:51.160Z,28.83
2023-04-29T06:58:22.717Z,16.92
2023-04-29T07:00:52.500Z,17.85
2023-04-29T07:03:22.915Z,19.65
2023-04-29T07:05:53.566Z,18.88
2023-04-29T07:08:28.653Z,19.40
2023-04-29T07:11:09.790Z,17.83
2023-04-29T07:13:41.347Z,17.25
2023-04-29T07:16:16.980Z,20.30
2023-04-29T07:18:44.499Z,16.50
2023-04-29T07:21:11.851Z,24.15
2023-04-29T07:23:39.955Z,19.00
2023-04-29T07:26:16.024Z,17.80
2023-04-29T07:28:45.922Z,21.73
2023-04-29T07:31:14.360Z,21.35
2023-04-29T07:33:42.201Z,17.30
2023-04-29T07:36:11.162Z,19.05
2023-04-29T07:38:38.684Z,16.95
2023-04-29T07:41:05.754Z,19.75
2023-04-29T07:43:33.111Z,20.10
2023-04-29T07:46:01.107Z,17.88
2023-04-29T07:48:28.787Z,17.15
2023-04-29T07:50:56.165Z,20.67
2023-04-29T07:53:23.762Z,16.70
2023-04-29T07:55:52.055Z,20.83
2023-04-29T07:58:23.621Z,20.73
2023-04-29T08:00:50.767Z,20.17
2023-04-29T08:03:19.607Z,15.95
2023-04-29T08:05:48.463Z,16.80
2023-04-29T08:08:17.716Z,17.50
2023-04-29T08:10:44.873Z,21.83
2023-04-29T08:13:12.292Z,28.00
2023-04-29T08:15:40.036Z,21.05
2023-04-29T08:18:07.474Z,25.67
2023-04-29T08:20:34.654Z,20.70
2023-04-29T08:23:02.145Z,16.60
2023-04-29T08:25:30.305Z,18.83
2023-04-29T08:27:57.856Z,19.75
2023-04-29T08:30:24.986Z,18.08
2023-04-29T08:32:52.350Z,22.38
2023-04-29T08:35:19.540Z,21.50
2023-04-29T08:37:47.864Z,19.08
2023-04-29T08:40:15.013Z,17.38
2023-04-29T08:42:46.872Z,30.38
2023-04-29T08:45:20.109Z,23.60
2023-04-29T08:47:49.615Z,18.83
2023-04-29T08:50:18.182Z,18.55
2023-04-29T08:52:45.666Z,23.70
2023-04-29T08:55:12.740Z,27.73
2023-04-29T08:57:43.288Z,23.23
2023-04-29T09:00:11.861Z,21.88
2023-04-29T09:02:45.012Z,20.58
2023-04-29T09:05:12.618Z,24.10
2023-04-29T09:07:41.950Z,21.92
2023-04-29T09:10:10.144Z,21.65
2023-04-29T09:12:37.800Z,21.45
2023-04-29T09:15:05.227Z,19.48
2023-04-29T09:17:40.850Z,21.90
2023-04-29T09:20:20.143Z,27.08
2023-04-29T09:23:06.305Z,20.70
2023-04-29T09:25:33.673Z,22.58
2023-04-29T09:28:15.846Z,22.58
2023-04-29T09:30:47.259Z,19.77
2023-04-29T09:33:16.833Z,24.95
2023-04-29T09:35:43.886Z,25.27
2023-04-29T09:38:16.210Z,22.08
2023-04-29T09:40:58.252Z,21.20
2023-04-29T09:43:27.163Z,22.33
2023-04-29T09:45:54.726Z,24.35
2023-04-29T09:48:22.319Z,24.85
2023-04-29T09:51:01.787Z,19.90
2023-04-29T09:53:31.773Z,26.33
2023-04-29T09:58:39.070Z,21.48
2023-04-29T10:01:07.446Z,23.88
2023-04-29T10:03:39.185Z,23.25
2023-04-29T10:06:08.190Z,29.52
2023-04-29T10:08:35.856Z,23.40
2023-04-29T10:11:04.265Z,24.20
2023-04-29T10:13:34.732Z,19.95
2023-04-29T10:16:20.166Z,24.73
2023-04-29T10:19:00.701Z,21.08
2023-04-29T10:21:31.502Z,23.30
2023-04-29T10:24:00.207Z,26.08
2023-04-29T10:26:29.392Z,23.10
2023-04-29T10:28:58.046Z,30.02
2023-04-29T10:31:28.704Z,26.45
2023-04-29T10:34:01.783Z,24.90
2023-04-29T10:36:33.005Z,23.67
2023-04-29T10:39:04.063Z,17.90
2023-04-29T10:41:37.931Z,21.88
2023-04-29T10:44:05.569Z,18.83
2023-04-29T10:46:32.921Z,24.00
2023-04-29T10:49:03.384Z,22.08
2023-04-29T10:51:33.193Z,25.23
2023-04-29T10:54:26.005Z,22.15
2023-04-29T10:56:54.552Z,24.15
2023-04-29T10:59:42.044Z,21.25
2023-04-29T11:02:10.973Z,19.83
2023-04-29T11:05:07.278Z,17.10
2023-04-29T11:07:34.517Z,15.45
2023-04-29T11:10:02.679Z,15.88
2023-04-29T11:12:30.022Z,15.23
2023-04-29T11:15:04.915Z,16.25
2023-04-29T11:17:37.864Z,14.77
2023-04-29T11:20:10.285Z,14.27
2023-04-29T11:22:38.218Z,16.30
2023-04-29T11:25:07.485Z,16.48
2023-04-29T11:28:01.854Z,19.30
2023-04-29T11:30:30.448Z,17.55
2023-04-29T11:32:59.412Z,16.50
2023-04-29T11:35:27.452Z,20.48
2023-04-29T11:37:55.088Z,20.60
2023-04-29T11:40:22.390Z,16.25
2023-04-29T11:42:50.102Z,21.17
2023-04-29T11:45:19.126Z,18.75
2023-04-29T11:47:48.894Z,17.60
2023-04-29T11:55:15.717Z,14.07
2023-04-29T11:57:43.724Z,17.45
2023-04-29T12:00:14.853Z,15.68
2023-04-29T12:02:47.775Z,17.30
2023-04-29T12:05:17.466Z,15.00
2023-04-29T12:07:45.923Z,15.95
2023-04-29T12:10:13.916Z,12.90
2023-04-29T12:12:43.851Z,17.00
2023-04-29T12:15:12.898Z,13.55
2023-04-29T12:17:41.380Z,18.27
2023-04-29T12:20:10.704Z,15.50
2023-04-29T12:22:38.553Z,16.98
2023-04-29T12:25:07.416Z,19.05
2023-04-29T12:27:36.292Z,15.32
2023-04-29T12:30:09.851Z,16.27
2023-04-29T12:32:38.608Z,14.95
2023-04-29T12:35:07.347Z,17.10
2023-04-29T12:37:35.499Z,17.48
2023-04-29T12:40:04.060Z,16.05
2023-04-29T12:42:34.503Z,14.23
2023-04-29T12:45:02.786Z,14.68
2023-04-29T12:47:34.974Z,14.93
2023-04-29T12:50:03.037Z,19.42
2023-04-29T12:52:30.212Z,17.52
2023-04-29T12:54:58.066Z,18.15
2023-04-29T12:57:28.106Z,20.83
2023-04-29T12:59:56.083Z,23.30
2023-04-29T13:02:23.385Z,52.35
2023-04-29T13:04:51.320Z,14.48
2023-04-29T13:07:18.967Z,18.67
2023-04-29T13:09:46.728Z,15.48
2023-04-29T13:12:14.012Z,21.27
2023-04-29T13:14:41.505Z,16.33
2023-04-29T13:17:09.726Z,24.35
2023-04-29T13:19:48.217Z,26.48
2023-04-29T13:22:18.501Z,22.42
2023-04-29T13:24:46.925Z,21.48
2023-04-29T13:27:14.451Z,17.33
2023-04-29T13:29:42.141Z,21.63
2023-04-29T13:32:09.563Z,22.00
2023-04-29T13:34:37.340Z,19.38
2023-04-29T13:37:04.553Z,17.08
2023-04-29T13:39:32.024Z,15.50
2023-04-29T13:41:59.675Z,18.80
2023-04-29T13:44:35.993Z,25.85
2023-04-29T13:47:07.550Z,21.02
2023-04-29T13:50:11.907Z,18.38
2023-04-29T13:59:55.511Z,17.63
2023-04-29T14:02:25.970Z,15.30
2023-04-29T14:04:54.659Z,16.23
2023-04-29T14:07:22.764Z,23.45
2023-04-29T14:09:50.127Z,22.33
2023-04-29T14:12:18.871Z,21.23
2023-04-29T14:14:49.343Z,16.70
2023-04-29T14:17:16.648Z,19.52
2023-04-29T14:19:44.143Z,22.10
2023-04-29T14:22:11.202Z,21.33
2023-04-29T14:24:39.506Z,35.95
2023-04-29T14:27:06.741Z,33.10
2023-04-29T14:29:34.201Z,48.72
2023-04-29T14:32:01.238Z,50.28
2023-04-29T14:34:28.678Z,124.13
2023-04-29T14:37:03.735Z,118.63
2023-04-29T14:39:34.097Z,44.08
2023-04-29T14:42:04.293Z,42.47
2023-04-29T14:44:32.116Z,69.00
2023-04-29T14:46:59.538Z,35.63
2023-04-29T14:49:28.179Z,44.40
2023-04-29T14:51:56.902Z,42.30
2023-04-29T14:54:24.806Z,34.50
2023-04-29T14:56:52.226Z,28.27
2023-04-29T14:59:19.623Z,19.33
2023-04-29T15:01:46.944Z,21.45
2023-04-29T15:04:14.586Z,20.00
2023-04-29T15:06:41.847Z,22.23
2023-04-29T15:09:09.400Z,35.53
2023-04-29T15:11:36.615Z,27.30
2023-04-29T15:14:04.509Z,22.60
2023-04-29T15:16:31.690Z,32.25
2023-04-29T15:18:59.295Z,26.70
2023-04-29T15:21:27.109Z,32.08
2023-04-29T15:23:54.596Z,28.02
2023-04-29T15:26:21.914Z,19.42
2023-04-29T15:28:49.642Z,20.15
2023-04-29T15:31:16.944Z,19.85
2023-04-29T15:33:44.703Z,23.00
2023-04-29T15:36:12.205Z,27.50
2023-04-29T15:38:39.629Z,23.35
2023-04-29T15:41:06.907Z,38.28
2023-04-29T15:43:34.926Z,25.02
2023-04-29T15:46:02.709Z,27.00
2023-04-29T15:48:30.112Z,43.15
2023-04-29T15:50:57.199Z,36.92
2023-04-29T15:53:24.715Z,38.80
2023-04-29T15:55:51.851Z,163.82
2023-04-29T15:58:19.154Z,118.57
2023-04-29T16:00:47.135Z,85.25
2023-04-29T16:03:14.704Z,52.80
2023-04-29T16:05:41.850Z,22.85
2023-04-29T16:08:09.293Z,23.38
2023-04-29T16:10:36.496Z,16.88
2023-04-29T16:13:14.076Z,17.88
2023-04-29T16:15:51.745Z,25.80
2023-04-29T16:20:52.159Z,19.50
2023-04-29T16:23:19.668Z,63.10
2023-04-29T16:25:47.030Z,41.55
2023-04-29T16:28:20.492Z,38.00
2023-04-29T16:30:48.933Z,56.83
2023-04-29T16:36:04.564Z,62.78
2023-04-29T16:38:39.199Z,41.10
2023-04-29T16:41:07.439Z,36.63
2023-04-29T16:43:35.383Z,33.75
2023-04-29T16:46:02.791Z,45.75
2023-04-29T16:48:30.603Z,29.17
2023-04-29T16:50:58.684Z,29.77
2023-04-29T16:53:26.195Z,28.65
2023-04-29T16:56:20.798Z,28.20
2023-04-29T17:01:53.608Z,42.70
2023-04-29T17:04:47.430Z,27.33
2023-04-29T17:07:19.448Z,30.42
2023-04-29T17:09:48.102Z,31.35
2023-04-29T17:12:20.486Z,30.65
2023-04-29T17:15:14.604Z,37.70
2023-04-29T17:18:05.536Z,31.75
2023-04-29T17:20:55.482Z,33.40
2023-04-29T17:23:31.491Z,25.20
2023-04-29T17:26:31.446Z,25.83
2023-04-29T17:29:06.707Z,30.58
2023-04-29T17:31:45.262Z,32.63
2023-04-29T17:34:18.603Z,34.70
2023-04-29T17:36:47.604Z,29.15
2023-04-29T17:39:15.124Z,37.40
2023-04-29T17:41:42.654Z,29.63
2023-04-29T17:44:10.085Z,30.98
2023-04-29T17:46:38.610Z,36.70
2023-04-29T17:49:06.168Z,37.13
2023-04-29T17:51:33.646Z,45.33
2023-04-29T17:54:02.249Z,37.08
2023-04-29T17:56:30.088Z,30.35
2023-04-29T17:58:57.919Z,31.98
2023-04-29T18:01:26.235Z,37.90
2023-04-29T18:03:54.095Z,44.53
2023-04-29T18:06:21.817Z,40.95
2023-04-29T18:08:49.453Z,53.33
2023-04-29T18:11:17.671Z,47.38
2023-04-29T18:13:46.252Z,62.72
2023-04-29T18:16:13.946Z,175.40
2023-04-29T18:18:43.264Z,106.05
2023-04-29T18:21:11.366Z,69.95
2023-04-29T18:23:40.499Z,57.20
2023-04-29T18:26:08.899Z,50.42
2023-04-29T18:28:36.651Z,58.28
2023-04-29T18:31:08.409Z,42.00
2023-04-29T18:34:13.503Z,36.20
2023-04-29T18:36:46.437Z,34.92
2023-04-29T18:39:15.542Z,37.00
2023-04-29T18:41:44.180Z,38.58
2023-04-29T18:44:12.375Z,39.83
2023-04-29T18:46:41.370Z,40.72
2023-04-29T18:49:12.048Z,39.80
2023-04-29T18:51:40.628Z,42.53
2023-04-29T18:54:09.388Z,49.50
2023-04-29T18:56:48.800Z,48.85
2023-04-29T18:59:19.919Z,42.10
2023-04-29T19:01:49.516Z,43.58
2023-04-29T19:04:18.611Z,43.85
2023-04-29T19:06:47.165Z,45.20
2023-04-29T19:09:15.526Z,33.75
2023-04-29T19:11:43.975Z,29.52
2023-04-29T19:14:12.049Z,36.35
2023-04-29T19:16:40.136Z,30.77
2023-04-29T19:19:08.109Z,27.90
2023-04-29T19:21:39.684Z,29.85
2023-04-29T19:24:07.325Z,24.13
2023-04-29T19:26:36.493Z,24.38
2023-04-29T19:29:06.269Z,26.83
2023-04-29T19:31:34.959Z,25.08
2023-04-29T19:34:03.739Z,26.42
2023-04-29T19:36:31.765Z,20.45
2023-04-29T19:39:00.268Z,22.08
2023-04-29T19:41:28.756Z,22.10
2023-04-29T19:43:56.631Z,22.40
2023-04-29T19:46:25.509Z,51.47
2023-04-29T19:48:53.862Z,77.72
2023-04-29T19:51:22.568Z,43.15
2023-04-29T19:53:52.114Z,23.27
2023-04-29T19:56:27.473Z,20.10
2023-04-29T19:58:57.561Z,22.55
2023-04-29T20:01:28.524Z,14.57
2023-04-29T20:03:56.365Z,22.17
2023-04-29T20:06:26.388Z,20.63
2023-04-29T20:08:54.969Z,23.55
2023-04-29T20:11:23.955Z,20.30
2023-04-29T20:13:51.409Z,21.77
2023-04-29T20:16:19.410Z,25.88
2023-04-29T20:18:48.767Z,35.67
2023-04-29T20:21:16.899Z,27.48
2023-04-29T20:23:45.270Z,20.08
2023-04-29T20:26:13.965Z,20.65
2023-04-29T20:28:41.570Z,17.88
2023-04-29T20:31:09.446Z,17.48
2023-04-29T20:33:38.253Z,18.60
2023-04-29T20:36:07.987Z,16.08
2023-04-29T20:38:37.551Z,16.90
2023-04-29T20:41:06.748Z,14.25
2023-04-29T20:43:35.235Z,13.25
2023-04-29T20:46:05.544Z,17.10
2023-04-29T20:48:34.051Z,15.38
2023-04-29T20:51:02.071Z,17.15
2023-04-29T20:53:31.478Z,16.98
2023-04-29T20:56:00.846Z,18.67
2023-04-29T20:58:30.780Z,17.17
2023-04-29T21:00:59.897Z,15.38
2023-04-29T21:03:27.870Z,17.98
2023-04-29T21:05:57.118Z,19.65
2023-04-29T21:08:25.890Z,18.40
2023-04-29T21:10:53.576Z,23.42
2023-04-29T21:13:31.258Z,23.10
2023-04-29T21:16:17.339Z,18.10
2023-04-29T21:18:47.695Z,18.40
2023-04-29T21:21:18.856Z,17.38
2023-04-29T21:24:08.401Z,20.08
2023-04-29T21:26:55.922Z,22.33
2023-04-29T21:29:27.172Z,16.67
2023-04-29T21:31:55.827Z,18.08
2023-04-29T21:34:23.794Z,16.60
2023-04-29T21:37:02.770Z,17.50
2023-04-29T21:39:41.502Z,16.93
2023-04-29T21:42:27.718Z,27.40
2023-04-29T21:45:30.878Z,18.98
2023-04-29T21:48:31.229Z,16.77
2023-04-29T21:50:59.998Z,16.50
2023-04-29T21:53:28.468Z,15.65
2023-04-29T21:55:56.539Z,18.20
2023-04-29T21:58:23.935Z,17.75
2023-04-29T22:00:58.522Z,17.05
2023-04-29T22:03:27.088Z,14.50
2023-04-29T22:05:54.473Z,15.95
2023-04-29T22:08:23.534Z,18.40
2023-04-29T22:10:51.663Z,17.55
2023-04-29T22:13:19.774Z,14.32
2023-04-29T22:15:46.936Z,16.25
2023-04-29T22:18:14.702Z,14.75
2023-04-29T22:20:42.692Z,12.52
2023-04-29T22:23:14.099Z,14.77
2023-04-29T22:25:51.397Z,13.02
2023-04-29T22:30:49.395Z,13.73
2023-04-29T22:33:17.183Z,14.90
2023-04-29T22:35:45.002Z,13.88
2023-04-29T22:38:13.023Z,15.43
2023-04-29T22:40:41.390Z,16.85
2023-04-29T22:43:10.921Z,17.67
2023-04-29T22:45:40.623Z,17.85
2023-04-29T22:48:10.274Z,13.30
2023-04-29T22:50:39.152Z,14.48
2023-04-29T22:53:07.330Z,14.07
2023-04-29T22:55:35.251Z,11.73
2023-04-29T22:58:03.060Z,12.93
2023-04-29T23:00:30.450Z,15.80
2023-04-29T23:02:59.133Z,20.08
2023-04-29T23:05:26.943Z,12.60
2023-04-29T23:07:54.501Z,13.95
2023-04-29T23:10:22.910Z,16.25
2023-04-29T23:12:51.380Z,13.27
2023-04-29T23:15:18.889Z,11.27
2023-04-29T23:17:46.423Z,14.23
2023-04-29T23:20:13.558Z,15.68
2023-04-29T23:22:41.515Z,10.73
2023-04-29T23:25:09.884Z,12.50
2023-04-29T23:27:37.941Z,11.82
2023-04-29T23:30:06.086Z,12.10
2023-04-29T23:32:34.023Z,13.30
2023-04-29T23:35:01.106Z,14.65
2023-04-29T23:37:28.752Z,14.52
2023-04-29T23:39:57.182Z,11.95
2023-04-29T23:42:24.906Z,13.60
2023-04-29T23:44:52.223Z,10.30
2023-04-29T23:47:19.871Z,11.15
2023-04-29T23:49:47.181Z,10.52
2023-04-29T23:52:15.108Z,8.48
2023-04-29T23:54:42.272Z,8.93
2023-04-29T23:57:09.744Z,9.30
2023-04-29T23:59:37.016Z,9.40
